Terminal Aerodrome Forecast
Issued by NWS Albany, NY

Home | Current Version | Previous Version | Text Only | Print | Product List | Glossary On
Versions: 1 2 3 4 5 6 7 8 9 10 11 12 13 14 15 16 17 18 19 20 21 22 23 24 25 26 27 28
000
FTUS41 KALY 281100 CCB
TAFGFL
TAF COR
KGFL 281157Z 2812/2912 VRB03KT 1 1/2SM RA BR FEW010 BKN040 OVC070
      TEMPO 2812/2814 5SM -RA BR BKN009 OVC050
     FM281500 05006KT P6SM VCSH BKN050
     FM281800 06008KT 4SM -SHRA BR SCT008 OVC015
     FM282200 32010G16KT P6SM VCSH BKN015 OVC030
     FM290200 31006KT P6SM BKN050
     FM291000 24003KT P6SM SCT050=

USA.gov is the U.S. government's official web portal to all federal, state and local government web resources and services.